KCOT/COT METAR and TAF weather

Enter ICAO airport designator
Station Type Date Time Source
KCOT METAR 2021/05/14 07:53 UTC NOAA

KCOT 140753Z AUTO 13003KT 10SM CLR 19/16 A3018 RMK AO2 SLP212 T01890156


Station Type Date Time Source
KCOT Decoded METAR 2021/05/14 07:53 UTC NOAA

COTULLA-LASALLE COUNTY AIRPORT , TX, United States (KCOT) 28-27N 099-13W 140M
May 14, 2021 - 03:53 AM EDT / 2021.05.14 0753 UTC
Wind: from the SE (130 degrees) at 3 MPH (3 KT):0
Visibility: 10 mile(s):0
Sky conditions: clear
Temperature: 66.0 F (18.9 C)
Dew Point: 60.1 F (15.6 C)
Relative Humidity: 81%
Pressure (altimeter): 30.18 in. Hg (1022 hPa)
ob: KCOT 140753Z AUTO 13003KT 10SM CLR 19/16 A3018 RMK AO2 SLP212 T01890156
cycle: 8

Station Type Date Time Source
KCOT TAF 2021/05/14 06:42 UTC NOAA

TAF KCOT 140540Z 1406/1506 10006KT P6SM FEW040 SCT250
TEMPO 1414/1416 BKN030
FM141800 13008KT P6SM SCT060
TEMPO 1420/1424 BKN060

Example: see airport list